sensor_id;sensor_type;location;lat;lon;timestamp;P1;durP1;ratioP1;P2;durP2;ratioP2
13683;SDS011;6914;53.552;9.908;2024-03-02T00:00:48;32.30;;;21.30;;
13683;SDS011;6914;53.552;9.908;2024-03-02T00:03:17;37.20;;;21.20;;
13683;SDS011;6914;53.552;9.908;2024-03-02T00:05:48;34.13;;;19.47;;
13683;SDS011;6914;53.552;9.908;2024-03-02T00:08:21;33.30;;;22.07;;
13683;SDS011;6914;53.552;9.908;2024-03-02T00:10:49;36.43;;;21.90;;
13683;SDS011;6914;53.552;9.908;2024-03-02T00:13:18;31.90;;;21.50;;
13683;SDS011;6914;53.552;9.908;2024-03-02T00:15:48;39.10;;;22.53;;
13683;SDS011;6914;53.552;9.908;2024-03-02T00:18:20;34.57;;;21.00;;
13683;SDS011;6914;53.552;9.908;2024-03-02T00:20:49;36.03;;;22.63;;
13683;SDS011;6914;53.552;9.908;2024-03-02T00:23:19;36.53;;;23.20;;
13683;SDS011;6914;53.552;9.908;2024-03-02T00:25:48;38.87;;;22.10;;
13683;SDS011;6914;53.552;9.908;2024-03-02T00:28:17;37.30;;;22.33;;
13683;SDS011;6914;53.552;9.908;2024-03-02T00:30:55;37.77;;;23.20;;
13683;SDS011;6914;53.552;9.908;2024-03-02T00:33:25;36.63;;;22.40;;
13683;SDS011;6914;53.552;9.908;2024-03-02T00:35:53;36.93;;;22.60;;
13683;SDS011;6914;53.552;9.908;2024-03-02T00:38:20;36.33;;;23.70;;
13683;SDS011;6914;53.552;9.908;2024-03-02T00:40:47;35.57;;;22.57;;
13683;SDS011;6914;53.552;9.908;2024-03-02T00:43:31;36.67;;;22.87;;
13683;SDS011;6914;53.552;9.908;2024-03-02T00:46:04;46.20;;;24.67;;
13683;SDS011;6914;53.552;9.908;2024-03-02T00:48:33;45.00;;;23.80;;
13683;SDS011;6914;53.552;9.908;2024-03-02T00:51:01;44.07;;;26.27;;
13683;SDS011;6914;53.552;9.908;2024-03-02T00:53:29;43.50;;;26.00;;
13683;SDS011;6914;53.552;9.908;2024-03-02T00:55:56;41.70;;;24.87;;
13683;SDS011;6914;53.552;9.908;2024-03-02T00:58:24;41.10;;;24.80;;
13683;SDS011;6914;53.552;9.908;2024-03-02T01:00:51;45.00;;;25.13;;
13683;SDS011;6914;53.552;9.908;2024-03-02T01:03:18;45.93;;;25.93;;
13683;SDS011;6914;53.552;9.908;2024-03-02T01:05:46;60.50;;;27.63;;
13683;SDS011;6914;53.552;9.908;2024-03-02T01:08:14;48.00;;;27.20;;
13683;SDS011;6914;53.552;9.908;2024-03-02T01:10:41;41.10;;;25.27;;
13683;SDS011;6914;53.552;9.908;2024-03-02T01:13:08;49.70;;;26.20;;
13683;SDS011;6914;53.552;9.908;2024-03-02T01:15:35;52.33;;;30.00;;
13683;SDS011;6914;53.552;9.908;2024-03-02T01:18:02;48.43;;;28.17;;
13683;SDS011;6914;53.552;9.908;2024-03-02T01:20:29;50.97;;;28.50;;
13683;SDS011;6914;53.552;9.908;2024-03-02T01:23:06;59.23;;;32.07;;
13683;SDS011;6914;53.552;9.908;2024-03-02T01:25:33;55.37;;;30.60;;
13683;SDS011;6914;53.552;9.908;2024-03-02T01:28:00;60.73;;;31.80;;
13683;SDS011;6914;53.552;9.908;2024-03-02T01:30:27;58.30;;;30.43;;
13683;SDS011;6914;53.552;9.908;2024-03-02T01:32:55;60.67;;;30.70;;
13683;SDS011;6914;53.552;9.908;2024-03-02T01:35:24;74.40;;;36.17;;
13683;SDS011;6914;53.552;9.908;2024-03-02T01:37:51;63.23;;;32.20;;
13683;SDS011;6914;53.552;9.908;2024-03-02T01:40:20;61.27;;;34.27;;
13683;SDS011;6914;53.552;9.908;2024-03-02T01:42:51;71.17;;;34.23;;
13683;SDS011;6914;53.552;9.908;2024-03-02T01:45:18;64.87;;;34.30;;
13683;SDS011;6914;53.552;9.908;2024-03-02T01:47:48;50.63;;;31.43;;
13683;SDS011;6914;53.552;9.908;2024-03-02T01:50:15;68.80;;;34.87;;
13683;SDS011;6914;53.552;9.908;2024-03-02T01:52:43;61.77;;;33.63;;
13683;SDS011;6914;53.552;9.908;2024-03-02T01:55:11;69.50;;;34.03;;
13683;SDS011;6914;53.552;9.908;2024-03-02T01:57:39;60.47;;;34.30;;
13683;SDS011;6914;53.552;9.908;2024-03-02T02:00:08;73.93;;;36.70;;
13683;SDS011;6914;53.552;9.908;2024-03-02T02:02:35;69.20;;;34.47;;
13683;SDS011;6914;53.552;9.908;2024-03-02T02:05:03;66.53;;;36.43;;
13683;SDS011;6914;53.552;9.908;2024-03-02T02:07:30;70.37;;;36.20;;
13683;SDS011;6914;53.552;9.908;2024-03-02T02:09:59;73.33;;;37.27;;
13683;SDS011;6914;53.552;9.908;2024-03-02T02:12:26;67.20;;;34.40;;
13683;SDS011;6914;53.552;9.908;2024-03-02T02:14:55;71.23;;;37.50;;
13683;SDS011;6914;53.552;9.908;2024-03-02T02:17:22;79.40;;;35.00;;
13683;SDS011;6914;53.552;9.908;2024-03-02T02:19:49;67.73;;;36.40;;
13683;SDS011;6914;53.552;9.908;2024-03-02T02:22:17;71.90;;;35.27;;
13683;SDS011;6914;53.552;9.908;2024-03-02T02:24:45;70.73;;;35.83;;
13683;SDS011;6914;53.552;9.908;2024-03-02T02:27:12;67.07;;;36.10;;
13683;SDS011;6914;53.552;9.908;2024-03-02T02:29:40;65.57;;;36.60;;
13683;SDS011;6914;53.552;9.908;2024-03-02T02:32:08;69.20;;;36.20;;
13683;SDS011;6914;53.552;9.908;2024-03-02T02:34:34;80.80;;;35.77;;
13683;SDS011;6914;53.552;9.908;2024-03-02T02:37:01;74.37;;;37.23;;
13683;SDS011;6914;53.552;9.908;2024-03-02T02:39:29;75.47;;;40.23;;
13683;SDS011;6914;53.552;9.908;2024-03-02T02:41:57;71.07;;;36.50;;
13683;SDS011;6914;53.552;9.908;2024-03-02T02:44:26;70.13;;;38.33;;
13683;SDS011;6914;53.552;9.908;2024-03-02T02:46:53;68.40;;;34.97;;
13683;SDS011;6914;53.552;9.908;2024-03-02T02:49:20;85.00;;;39.47;;
13683;SDS011;6914;53.552;9.908;2024-03-02T02:51:47;74.10;;;38.27;;
13683;SDS011;6914;53.552;9.908;2024-03-02T02:54:15;77.33;;;38.97;;
13683;SDS011;6914;53.552;9.908;2024-03-02T02:56:44;74.63;;;37.63;;
13683;SDS011;6914;53.552;9.908;2024-03-02T02:59:11;75.43;;;39.13;;
13683;SDS011;6914;53.552;9.908;2024-03-02T03:01:38;80.27;;;39.50;;
13683;SDS011;6914;53.552;9.908;2024-03-02T03:04:05;74.80;;;37.30;;
13683;SDS011;6914;53.552;9.908;2024-03-02T03:06:32;77.17;;;37.10;;
13683;SDS011;6914;53.552;9.908;2024-03-02T03:08:59;67.10;;;36.00;;
13683;SDS011;6914;53.552;9.908;2024-03-02T03:11:26;66.40;;;34.67;;
13683;SDS011;6914;53.552;9.908;2024-03-02T03:13:55;73.57;;;35.73;;
13683;SDS011;6914;53.552;9.908;2024-03-02T03:16:22;75.53;;;36.30;;
13683;SDS011;6914;53.552;9.908;2024-03-02T03:18:49;77.53;;;36.53;;
13683;SDS011;6914;53.552;9.908;2024-03-02T03:21:18;72.67;;;36.10;;
13683;SDS011;6914;53.552;9.908;2024-03-02T03:23:45;68.00;;;36.37;;
13683;SDS011;6914;53.552;9.908;2024-03-02T03:26:12;80.80;;;37.73;;
13683;SDS011;6914;53.552;9.908;2024-03-02T03:28:40;71.97;;;36.23;;
13683;SDS011;6914;53.552;9.908;2024-03-02T03:31:08;75.10;;;39.47;;
13683;SDS011;6914;53.552;9.908;2024-03-02T03:33:35;65.60;;;35.67;;
13683;SDS011;6914;53.552;9.908;2024-03-02T03:36:03;69.77;;;36.00;;
13683;SDS011;6914;53.552;9.908;2024-03-02T03:38:31;75.37;;;35.27;;
13683;SDS011;6914;53.552;9.908;2024-03-02T03:40:58;66.23;;;35.80;;
13683;SDS011;6914;53.552;9.908;2024-03-02T03:43:25;66.73;;;36.20;;
13683;SDS011;6914;53.552;9.908;2024-03-02T03:45:52;76.77;;;35.47;;
13683;SDS011;6914;53.552;9.908;2024-03-02T03:48:20;72.73;;;34.13;;
13683;SDS011;6914;53.552;9.908;2024-03-02T03:50:47;69.57;;;35.37;;
13683;SDS011;6914;53.552;9.908;2024-03-02T03:53:19;63.90;;;36.47;;
13683;SDS011;6914;53.552;9.908;2024-03-02T03:55:47;71.90;;;35.77;;
13683;SDS011;6914;53.552;9.908;2024-03-02T03:58:15;71.20;;;35.60;;
13683;SDS011;6914;53.552;9.908;2024-03-02T04:00:43;64.90;;;34.30;;
13683;SDS011;6914;53.552;9.908;2024-03-02T04:03:10;64.93;;;33.80;;
13683;SDS011;6914;53.552;9.908;2024-03-02T04:05:39;69.63;;;36.53;;
13683;SDS011;6914;53.552;9.908;2024-03-02T04:08:06;68.57;;;35.57;;
13683;SDS011;6914;53.552;9.908;2024-03-02T04:10:33;68.20;;;35.07;;
13683;SDS011;6914;53.552;9.908;2024-03-02T04:13:00;73.30;;;35.37;;
13683;SDS011;6914;53.552;9.908;2024-03-02T04:15:27;66.93;;;34.17;;
13683;SDS011;6914;53.552;9.908;2024-03-02T04:17:54;65.07;;;34.47;;
13683;SDS011;6914;53.552;9.908;2024-03-02T04:20:21;68.90;;;36.90;;
13683;SDS011;6914;53.552;9.908;2024-03-02T04:22:51;69.23;;;35.63;;
13683;SDS011;6914;53.552;9.908;2024-03-02T04:25:18;59.60;;;34.20;;
13683;SDS011;6914;53.552;9.908;2024-03-02T04:27:45;63.73;;;35.80;;
13683;SDS011;6914;53.552;9.908;2024-03-02T04:30:12;67.43;;;36.77;;
13683;SDS011;6914;53.552;9.908;2024-03-02T04:32:39;61.67;;;34.67;;
13683;SDS011;6914;53.552;9.908;2024-03-02T04:35:06;65.90;;;36.70;;
13683;SDS011;6914;53.552;9.908;2024-03-02T04:37:35;69.73;;;34.00;;
13683;SDS011;6914;53.552;9.908;2024-03-02T04:40:05;64.10;;;34.80;;
13683;SDS011;6914;53.552;9.908;2024-03-02T04:42:34;56.10;;;33.27;;
13683;SDS011;6914;53.552;9.908;2024-03-02T04:45:01;65.30;;;35.20;;
13683;SDS011;6914;53.552;9.908;2024-03-02T04:47:28;64.70;;;33.20;;
13683;SDS011;6914;53.552;9.908;2024-03-02T04:49:55;58.70;;;33.17;;
13683;SDS011;6914;53.552;9.908;2024-03-02T04:52:22;59.37;;;35.53;;
13683;SDS011;6914;53.552;9.908;2024-03-02T04:54:50;62.10;;;35.13;;
13683;SDS011;6914;53.552;9.908;2024-03-02T04:57:46;64.20;;;34.53;;
13683;SDS011;6914;53.552;9.908;2024-03-02T05:00:16;63.17;;;35.27;;
13683;SDS011;6914;53.552;9.908;2024-03-02T05:02:43;63.93;;;32.17;;
13683;SDS011;6914;53.552;9.908;2024-03-02T05:05:10;61.47;;;33.97;;
13683;SDS011;6914;53.552;9.908;2024-03-02T05:07:38;56.23;;;32.10;;
13683;SDS011;6914;53.552;9.908;2024-03-02T05:10:08;64.13;;;33.23;;
13683;SDS011;6914;53.552;9.908;2024-03-02T05:12:36;57.83;;;33.07;;
13683;SDS011;6914;53.552;9.908;2024-03-02T05:15:23;60.67;;;32.90;;
13683;SDS011;6914;53.552;9.908;2024-03-02T05:17:50;63.27;;;33.57;;
13683;SDS011;6914;53.552;9.908;2024-03-02T05:20:18;58.67;;;33.30;;
13683;SDS011;6914;53.552;9.908;2024-03-02T05:22:45;61.20;;;32.33;;
13683;SDS011;6914;53.552;9.908;2024-03-02T05:25:15;58.57;;;31.67;;
13683;SDS011;6914;53.552;9.908;2024-03-02T05:27:42;66.50;;;33.63;;
13683;SDS011;6914;53.552;9.908;2024-03-02T05:30:10;60.70;;;33.60;;
13683;SDS011;6914;53.552;9.908;2024-03-02T05:32:38;59.83;;;32.17;;
13683;SDS011;6914;53.552;9.908;2024-03-02T05:35:06;60.93;;;33.60;;
13683;SDS011;6914;53.552;9.908;2024-03-02T05:37:33;53.40;;;33.17;;
13683;SDS011;6914;53.552;9.908;2024-03-02T05:40:01;58.43;;;32.87;;
13683;SDS011;6914;53.552;9.908;2024-03-02T05:42:28;62.57;;;33.40;;
13683;SDS011;6914;53.552;9.908;2024-03-02T05:44:55;53.77;;;30.80;;
13683;SDS011;6914;53.552;9.908;2024-03-02T05:47:22;61.03;;;32.70;;
13683;SDS011;6914;53.552;9.908;2024-03-02T05:49:51;59.47;;;32.63;;
13683;SDS011;6914;53.552;9.908;2024-03-02T05:52:18;61.63;;;33.33;;
13683;SDS011;6914;53.552;9.908;2024-03-02T05:54:46;54.17;;;31.23;;
13683;SDS011;6914;53.552;9.908;2024-03-02T05:57:13;56.77;;;33.03;;
13683;SDS011;6914;53.552;9.908;2024-03-02T05:59:57;66.10;;;32.67;;
13683;SDS011;6914;53.552;9.908;2024-03-02T06:02:24;64.47;;;31.30;;
13683;SDS011;6914;53.552;9.908;2024-03-02T06:04:55;67.60;;;34.77;;
13683;SDS011;6914;53.552;9.908;2024-03-02T06:07:22;60.37;;;33.23;;
13683;SDS011;6914;53.552;9.908;2024-03-02T06:09:53;68.60;;;33.10;;
13683;SDS011;6914;53.552;9.908;2024-03-02T06:12:21;60.63;;;32.73;;
13683;SDS011;6914;53.552;9.908;2024-03-02T06:14:57;64.63;;;33.03;;
13683;SDS011;6914;53.552;9.908;2024-03-02T06:17:23;57.63;;;32.80;;
13683;SDS011;6914;53.552;9.908;2024-03-02T06:19:51;58.67;;;33.80;;
13683;SDS011;6914;53.552;9.908;2024-03-02T06:22:19;58.83;;;30.70;;
13683;SDS011;6914;53.552;9.908;2024-03-02T06:24:48;61.20;;;32.13;;
13683;SDS011;6914;53.552;9.908;2024-03-02T06:27:17;53.27;;;31.00;;
13683;SDS011;6914;53.552;9.908;2024-03-02T06:29:44;54.07;;;31.27;;
13683;SDS011;6914;53.552;9.908;2024-03-02T06:32:12;62.83;;;31.07;;
13683;SDS011;6914;53.552;9.908;2024-03-02T06:34:39;56.33;;;30.10;;
13683;SDS011;6914;53.552;9.908;2024-03-02T06:37:06;60.90;;;33.50;;
13683;SDS011;6914;53.552;9.908;2024-03-02T06:39:34;61.53;;;32.90;;
13683;SDS011;6914;53.552;9.908;2024-03-02T06:42:02;56.77;;;32.50;;
13683;SDS011;6914;53.552;9.908;2024-03-02T06:44:32;55.27;;;31.77;;
13683;SDS011;6914;53.552;9.908;2024-03-02T06:47:00;65.37;;;32.80;;
13683;SDS011;6914;53.552;9.908;2024-03-02T06:49:27;58.30;;;33.37;;
13683;SDS011;6914;53.552;9.908;2024-03-02T06:51:54;53.00;;;31.50;;
13683;SDS011;6914;53.552;9.908;2024-03-02T06:54:21;59.00;;;31.67;;
13683;SDS011;6914;53.552;9.908;2024-03-02T06:56:50;56.50;;;30.63;;
13683;SDS011;6914;53.552;9.908;2024-03-02T06:59:17;60.03;;;31.70;;
13683;SDS011;6914;53.552;9.908;2024-03-02T07:01:45;55.33;;;30.73;;
13683;SDS011;6914;53.552;9.908;2024-03-02T07:04:12;52.03;;;30.07;;
13683;SDS011;6914;53.552;9.908;2024-03-02T07:06:39;50.23;;;28.33;;
13683;SDS011;6914;53.552;9.908;2024-03-02T07:09:07;57.97;;;30.20;;
13683;SDS011;6914;53.552;9.908;2024-03-02T07:11:36;62.77;;;32.33;;
13683;SDS011;6914;53.552;9.908;2024-03-02T07:14:04;64.87;;;31.37;;
13683;SDS011;6914;53.552;9.908;2024-03-02T07:16:31;59.53;;;31.10;;
13683;SDS011;6914;53.552;9.908;2024-03-02T07:18:59;51.93;;;30.33;;
13683;SDS011;6914;53.552;9.908;2024-03-02T07:21:27;62.07;;;30.60;;
13683;SDS011;6914;53.552;9.908;2024-03-02T07:23:57;54.00;;;32.73;;
13683;SDS011;6914;53.552;9.908;2024-03-02T07:26:27;46.03;;;29.03;;
13683;SDS011;6914;53.552;9.908;2024-03-02T07:28:56;53.47;;;30.20;;
13683;SDS011;6914;53.552;9.908;2024-03-02T07:31:33;58.00;;;32.83;;
13683;SDS011;6914;53.552;9.908;2024-03-02T07:34:00;58.90;;;31.40;;
13683;SDS011;6914;53.552;9.908;2024-03-02T07:36:28;51.63;;;30.50;;
13683;SDS011;6914;53.552;9.908;2024-03-02T07:38:55;53.37;;;31.70;;
13683;SDS011;6914;53.552;9.908;2024-03-02T07:41:25;49.30;;;30.27;;
13683;SDS011;6914;53.552;9.908;2024-03-02T07:43:52;58.97;;;29.80;;
13683;SDS011;6914;53.552;9.908;2024-03-02T07:46:19;50.17;;;29.47;;
13683;SDS011;6914;53.552;9.908;2024-03-02T07:48:48;47.87;;;28.20;;
13683;SDS011;6914;53.552;9.908;2024-03-02T07:51:17;49.60;;;27.80;;
13683;SDS011;6914;53.552;9.908;2024-03-02T07:53:44;53.60;;;29.73;;
13683;SDS011;6914;53.552;9.908;2024-03-02T07:56:11;48.17;;;28.50;;
13683;SDS011;6914;53.552;9.908;2024-03-02T07:58:38;50.50;;;30.20;;
13683;SDS011;6914;53.552;9.908;2024-03-02T08:01:07;40.93;;;25.90;;
13683;SDS011;6914;53.552;9.908;2024-03-02T08:03:34;40.77;;;27.13;;
13683;SDS011;6914;53.552;9.908;2024-03-02T08:06:03;57.30;;;29.17;;
13683;SDS011;6914;53.552;9.908;2024-03-02T08:08:31;46.87;;;27.40;;
13683;SDS011;6914;53.552;9.908;2024-03-02T08:10:58;54.60;;;26.97;;
13683;SDS011;6914;53.552;9.908;2024-03-02T08:13:25;45.83;;;26.70;;
13683;SDS011;6914;53.552;9.908;2024-03-02T08:15:53;50.23;;;26.83;;
13683;SDS011;6914;53.552;9.908;2024-03-02T08:18:20;41.30;;;26.83;;
13683;SDS011;6914;53.552;9.908;2024-03-02T08:20:47;50.13;;;28.60;;
13683;SDS011;6914;53.552;9.908;2024-03-02T08:23:16;45.40;;;27.10;;
13683;SDS011;6914;53.552;9.908;2024-03-02T08:25:43;48.33;;;26.20;;
13683;SDS011;6914;53.552;9.908;2024-03-02T08:28:10;48.60;;;28.03;;
13683;SDS011;6914;53.552;9.908;2024-03-02T08:30:37;44.37;;;26.97;;
13683;SDS011;6914;53.552;9.908;2024-03-02T08:33:04;51.47;;;27.53;;
13683;SDS011;6914;53.552;9.908;2024-03-02T08:35:31;47.70;;;26.50;;
13683;SDS011;6914;53.552;9.908;2024-03-02T08:38:00;44.80;;;28.07;;
13683;SDS011;6914;53.552;9.908;2024-03-02T08:40:29;58.93;;;27.67;;
13683;SDS011;6914;53.552;9.908;2024-03-02T08:42:56;44.43;;;26.43;;
13683;SDS011;6914;53.552;9.908;2024-03-02T08:45:24;41.03;;;25.70;;
13683;SDS011;6914;53.552;9.908;2024-03-02T08:47:51;46.33;;;27.17;;
13683;SDS011;6914;53.552;9.908;2024-03-02T08:50:19;41.57;;;26.50;;
13683;SDS011;6914;53.552;9.908;2024-03-02T08:52:46;38.43;;;26.50;;
13683;SDS011;6914;53.552;9.908;2024-03-02T08:55:13;39.40;;;25.60;;
13683;SDS011;6914;53.552;9.908;2024-03-02T08:57:42;40.87;;;25.27;;
13683;SDS011;6914;53.552;9.908;2024-03-02T09:00:09;43.23;;;24.60;;
13683;SDS011;6914;53.552;9.908;2024-03-02T09:02:37;36.33;;;24.20;;
13683;SDS011;6914;53.552;9.908;2024-03-02T09:05:04;45.77;;;26.33;;
13683;SDS011;6914;53.552;9.908;2024-03-02T09:07:32;45.63;;;24.40;;
13683;SDS011;6914;53.552;9.908;2024-03-02T09:09:59;38.67;;;24.60;;
13683;SDS011;6914;53.552;9.908;2024-03-02T09:12:26;39.70;;;25.70;;
13683;SDS011;6914;53.552;9.908;2024-03-02T09:14:55;42.50;;;24.73;;
13683;SDS011;6914;53.552;9.908;2024-03-02T09:17:22;45.93;;;25.13;;
13683;SDS011;6914;53.552;9.908;2024-03-02T09:19:49;45.43;;;23.87;;
13683;SDS011;6914;53.552;9.908;2024-03-02T09:22:18;40.53;;;24.23;;
13683;SDS011;6914;53.552;9.908;2024-03-02T09:24:45;34.40;;;22.67;;
13683;SDS011;6914;53.552;9.908;2024-03-02T09:27:12;32.80;;;22.63;;
13683;SDS011;6914;53.552;9.908;2024-03-02T09:29:39;39.53;;;24.47;;
13683;SDS011;6914;53.552;9.908;2024-03-02T09:32:08;35.33;;;21.93;;
13683;SDS011;6914;53.552;9.908;2024-03-02T09:34:35;28.57;;;21.40;;
13683;SDS011;6914;53.552;9.908;2024-03-02T09:37:02;35.10;;;23.23;;
13683;SDS011;6914;53.552;9.908;2024-03-02T09:39:29;30.67;;;20.57;;
13683;SDS011;6914;53.552;9.908;2024-03-02T09:41:56;31.20;;;21.63;;
13683;SDS011;6914;53.552;9.908;2024-03-02T09:44:24;30.63;;;21.37;;
13683;SDS011;6914;53.552;9.908;2024-03-02T09:46:51;28.53;;;20.90;;
13683;SDS011;6914;53.552;9.908;2024-03-02T09:49:20;33.80;;;22.03;;
13683;SDS011;6914;53.552;9.908;2024-03-02T09:51:48;27.27;;;19.30;;
13683;SDS011;6914;53.552;9.908;2024-03-02T09:54:15;32.23;;;20.53;;
13683;SDS011;6914;53.552;9.908;2024-03-02T09:56:43;25.93;;;19.63;;
13683;SDS011;6914;53.552;9.908;2024-03-02T09:59:10;29.40;;;20.97;;
13683;SDS011;6914;53.552;9.908;2024-03-02T10:01:40;26.87;;;19.23;;
13683;SDS011;6914;53.552;9.908;2024-03-02T10:04:24;31.80;;;20.27;;
13683;SDS011;6914;53.552;9.908;2024-03-02T10:06:55;30.07;;;19.83;;
13683;SDS011;6914;53.552;9.908;2024-03-02T10:09:37;23.80;;;18.40;;
13683;SDS011;6914;53.552;9.908;2024-03-02T10:12:04;25.63;;;18.37;;
13683;SDS011;6914;53.552;9.908;2024-03-02T10:14:31;22.33;;;17.47;;
13683;SDS011;6914;53.552;9.908;2024-03-02T10:17:03;25.50;;;18.57;;
13683;SDS011;6914;53.552;9.908;2024-03-02T10:19:31;27.10;;;18.30;;
13683;SDS011;6914;53.552;9.908;2024-03-02T10:22:00;28.50;;;19.00;;
13683;SDS011;6914;53.552;9.908;2024-03-02T10:24:28;28.70;;;19.70;;
13683;SDS011;6914;53.552;9.908;2024-03-02T10:27:01;23.40;;;18.30;;
13683;SDS011;6914;53.552;9.908;2024-03-02T10:29:29;27.73;;;17.53;;
13683;SDS011;6914;53.552;9.908;2024-03-02T10:31:56;25.07;;;17.47;;
13683;SDS011;6914;53.552;9.908;2024-03-02T10:34:24;25.10;;;16.10;;
13683;SDS011;6914;53.552;9.908;2024-03-02T10:36:53;24.97;;;16.87;;
13683;SDS011;6914;53.552;9.908;2024-03-02T10:39:22;22.60;;;14.67;;
13683;SDS011;6914;53.552;9.908;2024-03-02T10:41:51;25.20;;;15.07;;
13683;SDS011;6914;53.552;9.908;2024-03-02T10:44:19;18.20;;;13.70;;
13683;SDS011;6914;53.552;9.908;2024-03-02T10:46:46;20.73;;;14.57;;
13683;SDS011;6914;53.552;9.908;2024-03-02T10:49:13;25.23;;;15.07;;
13683;SDS011;6914;53.552;9.908;2024-03-02T10:51:40;18.07;;;12.97;;
13683;SDS011;6914;53.552;9.908;2024-03-02T10:54:08;28.80;;;14.10;;
13683;SDS011;6914;53.552;9.908;2024-03-02T10:56:38;23.63;;;12.93;;
13683;SDS011;6914;53.552;9.908;2024-03-02T10:59:06;17.00;;;12.33;;
13683;SDS011;6914;53.552;9.908;2024-03-02T11:01:39;17.80;;;12.33;;
13683;SDS011;6914;53.552;9.908;2024-03-02T11:04:07;17.93;;;13.50;;
13683;SDS011;6914;53.552;9.908;2024-03-02T11:06:35;16.53;;;12.63;;
13683;SDS011;6914;53.552;9.908;2024-03-02T11:09:05;14.83;;;11.70;;
13683;SDS011;6914;53.552;9.908;2024-03-02T11:11:37;20.30;;;12.67;;
13683;SDS011;6914;53.552;9.908;2024-03-02T11:14:07;17.80;;;12.63;;
13683;SDS011;6914;53.552;9.908;2024-03-02T11:16:35;14.13;;;11.70;;
13683;SDS011;6914;53.552;9.908;2024-03-02T11:19:04;16.47;;;12.67;;
13683;SDS011;6914;53.552;9.908;2024-03-02T11:21:32;16.50;;;12.80;;
13683;SDS011;6914;53.552;9.908;2024-03-02T11:24:00;15.60;;;12.60;;
13683;SDS011;6914;53.552;9.908;2024-03-02T11:26:27;20.13;;;12.93;;
13683;SDS011;6914;53.552;9.908;2024-03-02T11:28:57;13.63;;;11.80;;
13683;SDS011;6914;53.552;9.908;2024-03-02T11:34:17;14.10;;;10.70;;
13683;SDS011;6914;53.552;9.908;2024-03-02T11:36:44;12.90;;;10.83;;
13683;SDS011;6914;53.552;9.908;2024-03-02T11:39:11;17.33;;;11.20;;
13683;SDS011;6914;53.552;9.908;2024-03-02T11:41:38;14.87;;;10.67;;
13683;SDS011;6914;53.552;9.908;2024-03-02T11:44:07;20.47;;;10.93;;
13683;SDS011;6914;53.552;9.908;2024-03-02T11:46:36;14.60;;;9.87;;
13683;SDS011;6914;53.552;9.908;2024-03-02T11:49:06;13.90;;;10.30;;
13683;SDS011;6914;53.552;9.908;2024-03-02T11:51:34;11.40;;;8.80;;
13683;SDS011;6914;53.552;9.908;2024-03-02T11:54:01;12.70;;;10.07;;
13683;SDS011;6914;53.552;9.908;2024-03-02T11:56:29;17.57;;;11.87;;
13683;SDS011;6914;53.552;9.908;2024-03-02T11:58:58;15.83;;;9.53;;
13683;SDS011;6914;53.552;9.908;2024-03-02T12:01:26;15.57;;;9.73;;
13683;SDS011;6914;53.552;9.908;2024-03-02T12:03:54;18.03;;;10.10;;
13683;SDS011;6914;53.552;9.908;2024-03-02T12:06:21;12.80;;;10.50;;
13683;SDS011;6914;53.552;9.908;2024-03-02T12:08:52;17.83;;;8.70;;
13683;SDS011;6914;53.552;9.908;2024-03-02T12:11:19;14.07;;;9.57;;
13683;SDS011;6914;53.552;9.908;2024-03-02T12:13:53;14.30;;;10.03;;
13683;SDS011;6914;53.552;9.908;2024-03-02T12:16:22;12.93;;;9.43;;
13683;SDS011;6914;53.552;9.908;2024-03-02T12:18:51;13.13;;;9.97;;
13683;SDS011;6914;53.552;9.908;2024-03-02T12:21:18;23.27;;;10.30;;
13683;SDS011;6914;53.552;9.908;2024-03-02T12:23:45;10.83;;;9.20;;
13683;SDS011;6914;53.552;9.908;2024-03-02T12:26:12;12.93;;;9.70;;
13683;SDS011;6914;53.552;9.908;2024-03-02T12:28:39;13.73;;;9.80;;
13683;SDS011;6914;53.552;9.908;2024-03-02T12:31:06;10.13;;;8.93;;
13683;SDS011;6914;53.552;9.908;2024-03-02T12:33:34;13.80;;;9.50;;
13683;SDS011;6914;53.552;9.908;2024-03-02T12:36:03;13.00;;;10.67;;
13683;SDS011;6914;53.552;9.908;2024-03-02T12:38:30;14.27;;;11.30;;
13683;SDS011;6914;53.552;9.908;2024-03-02T12:40:57;16.50;;;11.33;;
13683;SDS011;6914;53.552;9.908;2024-03-02T12:43:29;14.53;;;11.60;;
13683;SDS011;6914;53.552;9.908;2024-03-02T12:45:57;13.70;;;11.00;;
13683;SDS011;6914;53.552;9.908;2024-03-02T12:48:25;17.17;;;10.80;;
13683;SDS011;6914;53.552;9.908;2024-03-02T12:50:52;13.47;;;10.37;;
13683;SDS011;6914;53.552;9.908;2024-03-02T12:53:22;14.60;;;10.27;;
13683;SDS011;6914;53.552;9.908;2024-03-02T12:55:49;11.10;;;9.80;;
13683;SDS011;6914;53.552;9.908;2024-03-02T12:58:18;11.33;;;10.03;;
13683;SDS011;6914;53.552;9.908;2024-03-02T13:00:46;13.53;;;10.20;;
13683;SDS011;6914;53.552;9.908;2024-03-02T13:03:13;9.93;;;8.73;;
13683;SDS011;6914;53.552;9.908;2024-03-02T13:05:43;16.17;;;9.13;;
13683;SDS011;6914;53.552;9.908;2024-03-02T13:08:14;14.03;;;9.47;;
13683;SDS011;6914;53.552;9.908;2024-03-02T13:10:43;9.70;;;8.70;;
13683;SDS011;6914;53.552;9.908;2024-03-02T13:13:10;10.33;;;9.27;;
13683;SDS011;6914;53.552;9.908;2024-03-02T13:15:37;9.73;;;8.73;;
13683;SDS011;6914;53.552;9.908;2024-03-02T13:18:05;14.17;;;9.10;;
13683;SDS011;6914;53.552;9.908;2024-03-02T13:20:34;11.63;;;7.80;;
13683;SDS011;6914;53.552;9.908;2024-03-02T13:23:02;10.67;;;9.10;;
13683;SDS011;6914;53.552;9.908;2024-03-02T13:25:29;12.00;;;8.57;;
13683;SDS011;6914;53.552;9.908;2024-03-02T13:27:58;11.27;;;8.90;;
13683;SDS011;6914;53.552;9.908;2024-03-02T13:30:26;11.83;;;8.93;;
13683;SDS011;6914;53.552;9.908;2024-03-02T13:32:53;11.03;;;9.40;;
13683;SDS011;6914;53.552;9.908;2024-03-02T13:35:21;12.10;;;10.50;;
13683;SDS011;6914;53.552;9.908;2024-03-02T13:37:48;12.27;;;10.20;;
13683;SDS011;6914;53.552;9.908;2024-03-02T13:40:15;12.50;;;10.80;;
13683;SDS011;6914;53.552;9.908;2024-03-02T13:42:45;12.60;;;10.10;;
13683;SDS011;6914;53.552;9.908;2024-03-02T13:45:14;8.73;;;7.77;;
13683;SDS011;6914;53.552;9.908;2024-03-02T13:47:42;10.60;;;8.20;;
13683;SDS011;6914;53.552;9.908;2024-03-02T13:50:09;8.43;;;7.20;;
13683;SDS011;6914;53.552;9.908;2024-03-02T13:52:36;11.27;;;9.20;;
13683;SDS011;6914;53.552;9.908;2024-03-02T13:55:04;10.20;;;9.30;;
13683;SDS011;6914;53.552;9.908;2024-03-02T13:57:31;12.40;;;9.97;;
13683;SDS011;6914;53.552;9.908;2024-03-02T14:00:01;15.53;;;10.80;;
13683;SDS011;6914;53.552;9.908;2024-03-02T14:02:36;16.27;;;12.07;;
13683;SDS011;6914;53.552;9.908;2024-03-02T14:05:04;21.80;;;12.27;;
13683;SDS011;6914;53.552;9.908;2024-03-02T14:07:32;14.50;;;11.23;;
13683;SDS011;6914;53.552;9.908;2024-03-02T14:09:59;16.13;;;11.27;;
13683;SDS011;6914;53.552;9.908;2024-03-02T14:12:27;15.13;;;11.40;;
13683;SDS011;6914;53.552;9.908;2024-03-02T14:14:54;14.73;;;11.40;;
13683;SDS011;6914;53.552;9.908;2024-03-02T14:17:23;19.80;;;12.20;;
13683;SDS011;6914;53.552;9.908;2024-03-02T14:19:52;12.80;;;10.23;;
13683;SDS011;6914;53.552;9.908;2024-03-02T14:22:19;15.43;;;11.53;;
13683;SDS011;6914;53.552;9.908;2024-03-02T14:24:46;17.60;;;10.70;;
13683;SDS011;6914;53.552;9.908;2024-03-02T14:27:14;12.00;;;10.47;;
13683;SDS011;6914;53.552;9.908;2024-03-02T14:29:42;14.87;;;10.70;;
13683;SDS011;6914;53.552;9.908;2024-03-02T14:32:09;16.20;;;10.10;;
13683;SDS011;6914;53.552;9.908;2024-03-02T14:34:36;10.80;;;9.73;;
13683;SDS011;6914;53.552;9.908;2024-03-02T14:37:05;13.30;;;10.20;;
13683;SDS011;6914;53.552;9.908;2024-03-02T14:39:32;12.03;;;10.13;;
13683;SDS011;6914;53.552;9.908;2024-03-02T14:42:00;11.53;;;9.97;;
13683;SDS011;6914;53.552;9.908;2024-03-02T14:44:27;14.73;;;10.20;;